Terminal Aerodrome Forecast
Issued by NWS

Home | Current Version | Previous Version | Text Only | Print | Product List | Glossary On
Versions: 1 2 3 4 5 6 7 8 9 10 11 12 13 14 15 16 17
870
FTUS43 KBIS 060529
TAFDIK
TAF
KDIK 060529Z 0606/0706 30029G42KT 3/4SM -SN BLSN BR OVC005
     FM060900 30028G39KT 1 1/2SM BLSN OVC025
     FM061000 30027G38KT 2SM BLSN OVC025
     FM061100 30027G38KT 3SM BLSN OVC020
     FM062200 30022G32KT P6SM BKN015
     FM070300 30016G26KT P6SM BKN020=

USA.gov is the U.S. government's official web portal to all federal, state and local government web resources and services.